sensor_id;sensor_type;location;lat;lon;timestamp;pressure;altitude;pressure_sealevel;temperature;humidity
63582;BME280;49727;51.078;17.066;2023-04-30T00:02:58;100317.47;;;10.41;67.55
63582;BME280;49727;51.078;17.066;2023-04-30T00:17:58;100325.59;;;10.31;67.19
63582;BME280;49727;51.078;17.066;2023-04-30T00:32:58;100322.59;;;10.18;67.63
63582;BME280;49727;51.078;17.066;2023-04-30T00:47:59;100344.53;;;10.11;66.99
63582;BME280;49727;51.078;17.066;2023-04-30T01:03:00;100351.69;;;10.03;66.96
63582;BME280;49727;51.078;17.066;2023-04-30T01:33:03;100378.75;;;9.90;66.77
63582;BME280;49727;51.078;17.066;2023-04-30T02:03:16;100383.84;;;9.40;66.58
63582;BME280;49727;51.078;17.066;2023-04-30T02:18:16;100396.53;;;8.94;67.00
63582;BME280;49727;51.078;17.066;2023-04-30T02:33:16;100415.06;;;8.50;67.31
63582;BME280;49727;51.078;17.066;2023-04-30T02:48:17;100413.06;;;8.06;68.06
63582;BME280;49727;51.078;17.066;2023-04-30T03:03:18;100439.59;;;7.78;68.86
63582;BME280;49727;51.078;17.066;2023-04-30T03:18:18;100453.66;;;7.51;69.39
63582;BME280;49727;51.078;17.066;2023-04-30T03:33:19;100474.63;;;7.34;70.00
63582;BME280;49727;51.078;17.066;2023-04-30T03:48:19;100477.97;;;7.26;70.08
63582;BME280;49727;51.078;17.066;2023-04-30T04:03:20;100496.34;;;7.38;70.28
63582;BME280;49727;51.078;17.066;2023-04-30T04:18:21;100518.66;;;7.55;69.24
63582;BME280;49727;51.078;17.066;2023-04-30T04:33:21;100538.13;;;7.73;69.19
63582;BME280;49727;51.078;17.066;2023-04-30T04:48:21;100553.13;;;8.02;68.74
63582;BME280;49727;51.078;17.066;2023-04-30T05:03:22;100580.25;;;8.43;68.71
63582;BME280;49727;51.078;17.066;2023-04-30T05:18:22;100593.41;;;8.91;67.76
63582;BME280;49727;51.078;17.066;2023-04-30T05:33:22;100598.69;;;9.55;66.62
63582;BME280;49727;51.078;17.066;2023-04-30T05:48:23;100604.50;;;10.29;64.95
63582;BME280;49727;51.078;17.066;2023-04-30T06:03:23;100615.34;;;10.96;63.95
63582;BME280;49727;51.078;17.066;2023-04-30T06:18:24;100626.75;;;11.56;62.06
63582;BME280;49727;51.078;17.066;2023-04-30T06:33:24;100639.03;;;12.40;60.92
63582;BME280;49727;51.078;17.066;2023-04-30T06:48:24;100645.75;;;13.46;59.03
63582;BME280;49727;51.078;17.066;2023-04-30T07:03:25;100658.56;;;14.80;55.80
63582;BME280;49727;51.078;17.066;2023-04-30T07:18:26;100671.88;;;15.62;52.76
63582;BME280;49727;51.078;17.066;2023-04-30T07:33:26;100678.22;;;16.89;49.74
63582;BME280;49727;51.078;17.066;2023-04-30T07:48:27;100681.41;;;18.15;46.37
63582;BME280;49727;51.078;17.066;2023-04-30T08:03:27;100699.00;;;19.16;42.75
63582;BME280;49727;51.078;17.066;2023-04-30T08:18:28;100699.84;;;20.19;39.89
63582;BME280;49727;51.078;17.066;2023-04-30T08:33:29;100692.50;;;20.89;36.82
63582;BME280;49727;51.078;17.066;2023-04-30T08:48:31;100696.34;;;21.00;34.66
63582;BME280;49727;51.078;17.066;2023-04-30T09:03:32;100700.81;;;22.09;32.27
63582;BME280;49727;51.078;17.066;2023-04-30T09:18:38;100710.66;;;24.30;29.49
63582;BME280;49727;51.078;17.066;2023-04-30T09:33:45;100721.50;;;29.04;23.51
63582;BME280;49727;51.078;17.066;2023-04-30T09:48:55;100728.66;;;27.10;23.63
63582;BME280;49727;51.078;17.066;2023-04-30T10:03:56;100708.03;;;25.68;24.03
63582;BME280;49727;51.078;17.066;2023-04-30T10:19:03;100701.81;;;25.24;24.32
63582;BME280;49727;51.078;17.066;2023-04-30T10:34:29;100700.53;;;25.54;23.98
63582;BME280;49727;51.078;17.066;2023-04-30T10:49:32;100688.81;;;25.58;23.84
63582;BME280;49727;51.078;17.066;2023-04-30T11:04:33;100677.66;;;25.60;23.52
63582;BME280;49727;51.078;17.066;2023-04-30T11:19:33;100677.84;;;25.26;23.75
63582;BME280;49727;51.078;17.066;2023-04-30T11:34:33;100672.28;;;24.71;23.56
63582;BME280;49727;51.078;17.066;2023-04-30T11:49:34;100676.97;;;24.37;23.47
63582;BME280;49727;51.078;17.066;2023-04-30T12:04:35;100682.56;;;23.62;22.75
63582;BME280;49727;51.078;17.066;2023-04-30T12:19:36;100673.75;;;24.01;22.53
63582;BME280;49727;51.078;17.066;2023-04-30T12:34:36;100668.81;;;23.52;22.68
63582;BME280;49727;51.078;17.066;2023-04-30T12:49:37;100664.84;;;23.13;23.00
63582;BME280;49727;51.078;17.066;2023-04-30T13:04:38;100664.19;;;22.42;23.48
63582;BME280;49727;51.078;17.066;2023-04-30T13:19:39;100660.03;;;22.04;24.09
63582;BME280;49727;51.078;17.066;2023-04-30T13:34:39;100647.56;;;21.60;24.66
63582;BME280;49727;51.078;17.066;2023-04-30T13:49:40;100643.38;;;20.85;25.34
63582;BME280;49727;51.078;17.066;2023-04-30T14:04:41;100644.19;;;19.79;26.41
63582;BME280;49727;51.078;17.066;2023-04-30T14:19:41;100622.56;;;19.22;27.22
63582;BME280;49727;51.078;17.066;2023-04-30T14:34:42;100616.22;;;18.38;28.36
63582;BME280;49727;51.078;17.066;2023-04-30T14:49:42;100629.53;;;17.86;29.45
63582;BME280;49727;51.078;17.066;2023-04-30T15:04:43;100624.75;;;17.41;29.89
63582;BME280;49727;51.078;17.066;2023-04-30T15:19:45;100620.94;;;17.02;30.46
63582;BME280;49727;51.078;17.066;2023-04-30T15:34:45;100613.03;;;16.52;30.30
63582;BME280;49727;51.078;17.066;2023-04-30T15:49:45;100616.66;;;16.02;30.86
63582;BME280;49727;51.078;17.066;2023-04-30T16:04:47;100613.31;;;15.72;31.05
63582;BME280;49727;51.078;17.066;2023-04-30T16:19:47;100603.47;;;15.36;31.06
63582;BME280;49727;51.078;17.066;2023-04-30T16:34:48;100594.63;;;14.99;31.29
63582;BME280;49727;51.078;17.066;2023-04-30T16:49:48;100592.25;;;14.59;31.79
63582;BME280;49727;51.078;17.066;2023-04-30T17:04:48;100608.63;;;14.19;32.30
63582;BME280;49727;51.078;17.066;2023-04-30T17:19:48;100614.91;;;13.74;32.95
63582;BME280;49727;51.078;17.066;2023-04-30T17:34:49;100633.94;;;13.32;34.33
63582;BME280;49727;51.078;17.066;2023-04-30T17:49:49;100636.38;;;12.79;36.29
63582;BME280;49727;51.078;17.066;2023-04-30T18:04:49;100628.59;;;12.13;37.08
63582;BME280;49727;51.078;17.066;2023-04-30T18:19:50;100640.25;;;11.46;38.15
63582;BME280;49727;51.078;17.066;2023-04-30T18:34:50;100647.47;;;10.95;39.39
63582;BME280;49727;51.078;17.066;2023-04-30T18:49:50;100662.41;;;10.45;41.17
63582;BME280;49727;51.078;17.066;2023-04-30T19:04:51;100665.97;;;10.09;41.49
63582;BME280;49727;51.078;17.066;2023-04-30T19:19:51;100678.31;;;9.74;42.83
63582;BME280;49727;51.078;17.066;2023-04-30T19:34:52;100685.31;;;9.39;43.57
63582;BME280;49727;51.078;17.066;2023-04-30T19:49:52;100693.59;;;9.08;44.60
63582;BME280;49727;51.078;17.066;2023-04-30T20:04:53;100703.22;;;8.81;45.66
63582;BME280;49727;51.078;17.066;2023-04-30T20:19:53;100708.09;;;8.49;47.46
63582;BME280;49727;51.078;17.066;2023-04-30T20:34:54;100722.94;;;8.22;48.70
63582;BME280;49727;51.078;17.066;2023-04-30T20:49:54;100732.88;;;8.00;49.93
63582;BME280;49727;51.078;17.066;2023-04-30T21:04:55;100734.53;;;7.72;50.21
63582;BME280;49727;51.078;17.066;2023-04-30T21:19:55;100737.19;;;7.52;51.54
63582;BME280;49727;51.078;17.066;2023-04-30T21:34:55;100749.81;;;7.29;52.75
63582;BME280;49727;51.078;17.066;2023-04-30T21:49:56;100743.06;;;7.05;53.24
63582;BME280;49727;51.078;17.066;2023-04-30T22:04:57;100757.44;;;6.82;54.73
63582;BME280;49727;51.078;17.066;2023-04-30T22:19:57;100755.13;;;6.46;55.81
63582;BME280;49727;51.078;17.066;2023-04-30T22:34:58;100753.72;;;6.21;56.24
63582;BME280;49727;51.078;17.066;2023-04-30T22:49:58;100756.47;;;5.98;57.50
63582;BME280;49727;51.078;17.066;2023-04-30T23:04:59;100760.69;;;5.78;58.19
63582;BME280;49727;51.078;17.066;2023-04-30T23:19:59;100757.53;;;5.63;58.99
63582;BME280;49727;51.078;17.066;2023-04-30T23:34:59;100756.81;;;5.38;59.43
63582;BME280;49727;51.078;17.066;2023-04-30T23:50:00;100747.63;;;4.87;60.35
